Time;durP1;ratioP1;P1;durP2;ratioP2;P2;SDS_P1;SDS_P2;PMS_P1;PMS_P2;Temp;Humidity;BMP_temperature;BMP_pressure;BME280_temperature;BME280_humidity;BME280_pressure;Samples;Min_cycle;Max_cycle;Signal;HPM_P1;HPM_P2
2022/07/25 00:00:24;;;;;;;;;16.50;16.25;;;;;30.10;37.92;100512.94;2111175;27;47187;-62
2022/07/25 00:01:24;;;;;;;;;16.25;16.25;;;;;30.10;37.93;100509.34;2096666;28;47093;-63
2022/07/25 00:02:25;;;;;;;;;11.50;11.50;;;;;30.10;37.32;100506.63;2093162;28;47308;-63
2022/07/25 00:03:26;;;;;;;;;16.50;16.50;;;;;30.10;37.29;100514.81;2110530;27;47003;-60
2022/07/25 00:04:26;;;;;;;;;17.00;17.00;;;;;30.09;37.35;100510.38;2117905;27;47859;-65
2022/07/25 00:05:26;;;;;;;;;16.00;15.00;;;;;30.08;37.59;100511.41;2119471;27;47406;-63
2022/07/25 00:06:27;;;;;;;;;18.50;17.00;;;;;30.09;37.61;100510.38;2119691;27;47255;-63
2022/07/25 00:07:27;;;;;;;;;16.00;16.00;;;;;30.08;37.88;100505.91;2110613;27;45590;-59
2022/07/25 00:08:28;;;;;;;;;17.75;16.25;;;;;30.07;37.25;100510.53;2110488;27;47495;-62
2022/07/25 00:09:28;;;;;;;;;16.25;14.50;;;;;30.06;37.50;100499.75;2121187;27;47277;-64
2022/07/25 00:10:28;;;;;;;;;15.75;15.75;;;;;30.06;37.20;100502.50;2121150;27;47631;-63
2022/07/25 00:11:29;;;;;;;;;17.50;15.00;;;;;30.06;37.28;100497.03;2121035;27;47226;-64
2022/07/25 00:12:30;;;;;;;;;19.00;19.00;;;;;30.05;37.78;100504.38;2121582;27;45400;-61
2022/07/25 00:13:30;;;;;;;;;15.50;15.50;;;;;30.06;37.22;100494.28;2102792;28;48164;-63
2022/07/25 00:14:31;;;;;;;;;16.50;16.50;;;;;30.05;37.46;100487.06;2103102;28;47455;-64
2022/07/25 00:15:32;;;;;;;;;18.50;17.25;;;;;30.05;37.73;100489.81;2119921;27;47418;-59
2022/07/25 00:16:32;;;;;;;;;15.75;15.25;;;;;30.04;37.64;100488.94;2120980;27;47103;-63
2022/07/25 00:17:33;;;;;;;;;17.00;16.00;;;;;30.03;37.86;100473.56;2121129;27;47372;-62
2022/07/25 00:18:33;;;;;;;;;18.00;18.00;;;;;30.04;37.80;100482.63;2120993;27;47476;-64
2022/07/25 00:19:33;;;;;;;;;15.25;15.25;;;;;30.05;37.29;100481.59;2121481;27;47174;-62
2022/07/25 00:20:34;;;;;;;;;12.00;12.00;;;;;30.03;37.52;100476.28;2121069;27;47892;-63
2022/07/25 00:21:34;;;;;;;;;16.75;16.50;;;;;30.03;37.44;100480.91;2121015;27;47583;-60
2022/07/25 00:22:35;;;;;;;;;16.00;15.00;;;;;30.03;37.86;100486.38;2121156;27;47902;-64
2022/07/25 00:23:35;;;;;;;;;18.50;17.00;;;;;30.02;37.51;100490.16;2120784;27;47415;-64
2022/07/25 00:24:36;;;;;;;;;14.50;14.50;;;;;30.01;37.73;100478.34;2121087;27;47406;-61
2022/07/25 00:25:36;;;;;;;;;13.00;13.00;;;;;30.01;38.00;100477.47;2121071;27;47971;-64
2022/07/25 00:26:36;;;;;;;;;13.00;13.00;;;;;30.00;38.05;100473.03;2120709;27;47220;-63
2022/07/25 00:27:37;;;;;;;;;17.50;17.50;;;;;29.99;37.80;100472.19;2121094;27;47524;-63
2022/07/25 00:28:37;;;;;;;;;14.25;13.75;;;;;29.99;37.66;100465.84;2121158;27;47888;-65
2022/07/25 00:29:38;;;;;;;;;15.25;15.25;;;;;29.99;37.96;100471.31;2121151;27;47351;-64
2022/07/25 00:30:38;;;;;;;;;17.00;16.75;;;;;29.97;37.92;100470.59;2117391;27;47349;-63
2022/07/25 00:31:39;;;;;;;;;16.25;15.75;;;;;29.97;37.97;100468.72;2114340;27;47539;-61
2022/07/25 00:32:39;;;;;;;;;13.50;12.75;;;;;29.97;37.90;100468.72;2112587;27;47759;-63
2022/07/25 00:33:40;;;;;;;;;16.50;15.75;;;;;29.97;37.51;100471.47;2112467;27;47237;-64
2022/07/25 00:34:40;;;;;;;;;15.25;15.25;;;;;29.97;38.01;100468.72;2112560;27;47979;-65
2022/07/25 00:35:40;;;;;;;;;12.75;12.75;;;;;29.96;37.93;100471.63;2112503;27;47365;-61
2022/07/25 00:36:41;;;;;;;;;14.25;14.25;;;;;29.96;38.20;100471.63;2112315;27;47038;-63
2022/07/25 00:37:41;;;;;;;;;14.25;13.00;;;;;29.96;38.27;100475.22;2113191;27;46735;-60
2022/07/25 00:38:42;;;;;;;;;14.25;14.25;;;;;29.95;37.78;100476.25;2111996;27;47527;-63
2022/07/25 00:39:42;;;;;;;;;14.00;12.75;;;;;29.94;37.96;100477.28;2111515;27;47912;-64
2022/07/25 00:40:42;;;;;;;;;14.00;14.00;;;;;29.93;38.05;100470.09;2102748;28;47404;-62
2022/07/25 00:41:43;;;;;;;;;18.00;17.00;;;;;29.92;38.37;100467.53;2102732;28;47458;-63
2022/07/25 00:42:43;;;;;;;;;16.00;16.00;;;;;29.91;38.11;100472.13;2111906;27;47379;-64
2022/07/25 00:43:44;;;;;;;;;16.00;14.75;;;;;29.90;38.15;100475.91;2111886;27;47308;-62
2022/07/25 00:44:45;;;;;;;;;15.00;15.00;;;;;29.89;37.72;100469.56;2120237;27;47667;-64
2022/07/25 00:45:45;;;;;;;;;16.75;16.75;;;;;29.89;38.54;100466.81;2120092;27;47391;-63
2022/07/25 00:46:45;;;;;;;;;14.00;14.00;;;;;29.89;38.04;100460.50;2120937;27;47826;-64
2022/07/25 00:47:46;;;;;;;;;12.25;12.25;;;;;29.87;38.08;100455.19;2120784;27;47223;-64
2022/07/25 00:48:47;;;;;;;;;15.25;15.00;;;;;29.87;38.12;100457.94;2121273;27;46861;-63
2022/07/25 00:49:47;;;;;;;;;12.25;12.25;;;;;29.86;38.70;100449.91;2111546;27;47509;-63
2022/07/25 00:50:48;;;;;;;;;13.50;13.50;;;;;29.86;38.24;100458.09;2107023;27;47658;-63
2022/07/25 00:51:49;;;;;;;;;11.50;9.50;;;;;29.86;37.99;100449.91;2112167;27;48334;-63
2022/07/25 00:52:49;;;;;;;;;13.40;13.40;;;;;29.84;38.13;100455.50;2118805;27;46451;-62
2022/07/25 00:53:50;;;;;;;;;13.50;13.50;;;;;29.86;38.37;100458.09;2112098;27;47936;-64
2022/07/25 00:54:50;;;;;;;;;14.00;13.00;;;;;29.85;38.07;100457.22;2102551;27;48024;-62
2022/07/25 00:55:51;;;;;;;;;15.25;15.25;;;;;29.84;38.50;100451.91;2102777;27;47731;-63
2022/07/25 00:56:51;;;;;;;;;16.25;16.25;;;;;29.82;38.19;100456.69;2120404;27;47869;-61
2022/07/25 00:57:52;;;;;;;;;15.25;15.00;;;;;29.82;38.29;100456.69;2113908;27;47759;-64
2022/07/25 00:58:53;;;;;;;;;14.50;14.50;;;;;29.83;38.05;100450.19;2087188;28;45204;-64
2022/07/25 00:59:53;;;;;;;;;13.80;13.80;;;;;29.81;38.20;100444.91;2087252;28;47117;-61
2022/07/25 01:00:54;;;;;;;;;15.75;14.50;;;;;29.81;38.45;100449.50;2120690;27;47923;-63
2022/07/25 01:01:54;;;;;;;;;15.50;14.50;;;;;29.80;38.13;100448.66;2120871;27;47382;-62
2022/07/25 01:02:55;;;;;;;;;14.25;14.00;;;;;29.79;38.31;100451.56;2120993;27;48201;-64
2022/07/25 01:03:56;;;;;;;;;14.00;14.00;;;;;29.79;38.36;100446.94;2099531;28;47663;-60
2022/07/25 01:04:57;;;;;;;;;14.00;14.00;;;;;29.79;38.20;100448.81;2102664;28;47383;-63
2022/07/25 01:05:58;;;;;;;;;16.80;16.80;;;;;29.79;38.58;100448.81;2120736;27;47932;-61
2022/07/25 01:06:59;;;;;;;;;16.50;15.50;;;;;29.79;38.02;100448.81;2120430;27;47556;-64
2022/07/25 01:08:01;;;;;;;;;12.20;12.20;;;;;29.79;38.44;100454.28;2120572;27;47944;-62
2022/07/25 01:09:03;;;;;;;;;15.00;13.00;;;;;29.78;38.33;100447.09;2120533;27;47688;-61
2022/07/25 01:10:04;;;;;;;;;15.80;14.60;;;;;29.77;38.56;100450.88;2120906;27;47599;-65
2022/07/25 01:11:05;;;;;;;;;16.60;16.60;;;;;29.76;38.41;100452.75;2111482;27;47928;-60
2022/07/25 01:12:05;;;;;;;;;17.50;16.25;;;;;29.76;38.63;100451.88;2111357;27;47506;-65
2022/07/25 01:13:06;;;;;;;;;14.75;14.75;;;;;29.73;38.55;100453.09;2120983;27;47904;-63
2022/07/25 01:14:07;;;;;;;;;16.00;16.00;;;;;29.74;38.55;100460.25;2120627;27;48241;-63
2022/07/25 01:15:08;;;;;;;;;14.25;13.50;;;;;29.74;38.57;100459.41;2123704;27;47735;-63
2022/07/25 01:16:08;;;;;;;;;16.00;16.00;;;;;29.72;38.71;100469.63;2094362;28;47722;-63
2022/07/25 01:17:09;;;;;;;;;13.75;13.75;;;;;29.72;38.78;100478.69;2100253;28;47458;-63
2022/07/25 01:18:09;;;;;;;;;13.00;12.25;;;;;29.71;38.28;100485.19;2113353;27;47903;-64
2022/07/25 01:19:09;;;;;;;;;13.75;13.75;;;;;29.70;38.60;100488.94;2120544;27;47704;-62
2022/07/25 01:20:22;;;;;;;;;15.25;13.50;;;;;29.69;38.59;100492.69;2120708;27;47348;-65
2022/07/25 01:21:23;;;;;;;;;16.20;16.20;;;;;29.69;38.46;100476.28;2121033;27;47396;-64
2022/07/25 01:22:24;;;;;;;;;17.20;16.20;;;;;29.68;38.64;100480.03;2120800;27;47392;-63
2022/07/25 01:23:24;;;;;;;;;11.25;11.25;;;;;29.68;38.61;100476.47;2119204;27;47758;-63
2022/07/25 01:24:25;;;;;;;;;16.75;16.75;;;;;29.67;38.82;100482.94;2103070;27;47254;-64
2022/07/25 01:25:26;;;;;;;;;13.75;13.25;;;;;29.66;38.62;100483.97;2085585;28;47435;-60
2022/07/25 01:26:27;;;;;;;;;19.80;15.40;;;;;29.64;38.70;100483.28;2091434;27;47999;-64
2022/07/25 01:27:28;;;;;;;;;15.25;14.75;;;;;29.63;38.95;100482.41;2111404;27;47899;-62
2022/07/25 01:28:28;;;;;;;;;16.00;16.00;;;;;29.63;38.80;100478.84;2111626;27;47540;-63
2022/07/25 01:29:28;;;;;;;;;15.00;15.00;;;;;29.63;38.31;100481.56;2113414;27;47632;-63
2022/07/25 01:30:29;;;;;;;;;15.00;13.50;;;;;29.61;38.87;100476.25;2120808;27;47459;-62
2022/07/25 01:31:29;;;;;;;;;15.25;14.75;;;;;29.62;38.88;100477.13;2120842;27;47544;-64
2022/07/25 01:32:30;;;;;;;;;12.75;12.50;;;;;29.63;38.99;100478.84;2120662;27;47608;-63
2022/07/25 01:33:30;;;;;;;;;16.00;16.00;;;;;29.63;38.79;100470.63;2120509;27;47945;-64
2022/07/25 01:34:30;;;;;;;;;13.25;13.25;;;;;29.62;38.69;100471.66;2120918;27;48092;-63
2022/07/25 01:35:31;;;;;;;;;15.25;14.50;;;;;29.60;39.05;100477.25;2120852;27;47464;-60
2022/07/25 01:36:31;;;;;;;;;16.00;15.75;;;;;29.60;38.61;100474.50;2119781;27;47456;-62
2022/07/25 01:37:32;;;;;;;;;15.00;15.00;;;;;29.60;39.04;100474.50;2113609;27;47253;-64
2022/07/25 01:38:32;;;;;;;;;15.25;15.25;;;;;29.61;38.82;100479.00;2115103;27;48124;-62
2022/07/25 01:39:33;;;;;;;;;13.50;13.50;;;;;29.59;38.76;100472.81;2116628;27;47802;-64
2022/07/25 01:40:33;;;;;;;;;14.25;14.25;;;;;29.61;38.91;100483.63;2112094;27;47772;-64
2022/07/25 01:41:34;;;;;;;;;13.75;13.50;;;;;29.60;38.97;100485.47;2116482;27;46381;-62
2022/07/25 01:42:35;;;;;;;;;14.00;13.75;;;;;29.59;38.52;100487.34;2116376;27;47421;-64
2022/07/25 01:43:35;;;;;;;;;14.25;14.25;;;;;29.58;38.56;100480.16;2103042;28;47526;-64
2022/07/25 01:44:35;;;;;;;;;14.75;14.75;;;;;29.58;38.19;100473.81;2110607;27;47641;-61
2022/07/25 01:45:36;;;;;;;;;13.75;13.75;;;;;29.57;38.39;100472.97;2111363;27;48278;-63
2022/07/25 01:46:36;;;;;;;;;16.50;16.00;;;;;29.57;38.80;100472.13;2111326;27;47767;-61
2022/07/25 01:47:38;;;;;;;;;14.50;14.00;;;;;29.57;38.65;100480.31;2118184;27;47344;-64
2022/07/25 01:48:40;;;;;;;;;13.00;13.00;;;;;29.57;38.84;100477.59;2112314;27;48812;-63
2022/07/25 01:49:40;;;;;;;;;11.20;11.20;;;;;29.55;38.89;100472.28;2122272;27;48139;-61
2022/07/25 01:50:41;;;;;;;;;11.50;11.50;;;;;29.54;38.44;100466.97;2120363;27;47407;-62
2022/07/25 01:51:41;;;;;;;;;13.75;13.25;;;;;29.55;38.75;100465.94;2120332;27;47685;-64
2022/07/25 01:52:42;;;;;;;;;13.75;13.75;;;;;29.54;38.65;100473.31;2120186;27;47530;-61
2022/07/25 01:53:43;;;;;;;;;12.00;12.00;;;;;29.53;38.74;100471.59;2111351;27;48306;-63
2022/07/25 01:54:43;;;;;;;;;9.75;9.75;;;;;29.53;38.41;100470.72;2110582;27;47549;-60
2022/07/25 01:55:44;;;;;;;;;13.00;13.00;;;;;29.53;38.51;100466.13;2115921;27;47665;-60
2022/07/25 01:56:45;;;;;;;;;15.40;14.80;;;;;29.52;38.54;100464.41;2110447;27;45791;-62
2022/07/25 01:57:45;;;;;;;;;13.25;13.25;;;;;29.51;38.66;100459.09;2105434;27;45959;-61
2022/07/25 01:58:46;;;;;;;;;15.50;14.50;;;;;29.51;38.71;100454.50;2087093;28;47205;-61
2022/07/25 01:59:46;;;;;;;;;11.00;11.00;;;;;29.51;38.88;100464.56;2108737;27;47195;-64
2022/07/25 02:00:47;;;;;;;;;15.50;14.50;;;;;29.51;38.87;100459.97;2120397;27;47622;-62
2022/07/25 02:01:48;;;;;;;;;12.00;12.00;;;;;29.50;38.37;100457.41;2120899;27;47906;-61
2022/07/25 02:03:28;;;;;;;;;11.75;11.75;;;;;29.50;38.64;100460.13;2111100;27;47280;-63
2022/07/25 02:04:08;;;;;;;;;13.00;13.00;;;;;29.48;38.66;100457.56;2114376;27;47599;-61
2022/07/25 02:05:11;;;;;;;;;12.00;12.00;;;;;29.49;38.73;100458.41;2123393;27;46302;-63
2022/07/25 02:06:11;;;;;;;;;14.20;13.00;;;;;29.49;38.57;100458.41;2117226;27;48129;-63
2022/07/25 02:07:12;;;;;;;;;13.75;13.75;;;;;29.49;38.81;100466.63;2123358;27;47574;-61
2022/07/25 02:08:12;;;;;;;;;14.00;14.00;;;;;29.48;38.71;100462.16;2114586;27;47742;-63
2022/07/25 02:09:12;;;;;;;;;14.00;14.00;;;;;29.47;38.61;100464.00;2120371;27;47989;-62
2022/07/25 02:10:13;;;;;;;;;16.75;16.75;;;;;29.46;38.74;100464.16;2121720;27;47267;-63
2022/07/25 02:11:13;;;;;;;;;13.25;11.25;;;;;29.45;38.45;100456.97;2113565;27;47358;-63
2022/07/25 02:12:13;;;;;;;;;10.50;10.50;;;;;29.44;38.75;100458.00;2116361;27;47232;-62
2022/07/25 02:13:14;;;;;;;;;10.75;10.75;;;;;29.42;38.60;100460.03;2111177;27;47586;-64
2022/07/25 02:14:14;;;;;;;;;9.50;7.75;;;;;29.41;38.32;100467.38;2120476;27;48408;-60
2022/07/25 02:15:15;;;;;;;;;13.00;11.75;;;;;29.39;38.66;100461.22;2119859;27;47949;-64
2022/07/25 02:16:15;;;;;;;;;13.00;11.25;;;;;29.40;38.49;100456.59;2121443;27;47991;-62
2022/07/25 02:17:15;;;;;;;;;12.50;12.50;;;;;29.38;38.63;100464.13;2102105;27;48175;-61
2022/07/25 02:18:16;;;;;;;;;11.50;11.00;;;;;29.37;38.55;100448.72;2102837;27;46546;-63
2022/07/25 02:19:16;;;;;;;;;10.00;10.00;;;;;29.36;38.41;100458.81;2113587;27;47005;-60
2022/07/25 02:20:17;;;;;;;;;10.75;10.75;;;;;29.35;38.44;100456.22;2123474;27;46281;-61
2022/07/25 02:21:17;;;;;;;;;11.00;11.00;;;;;29.34;38.90;100454.50;2117703;27;47498;-62
2022/07/25 02:22:18;;;;;;;;;12.50;11.50;;;;;29.31;38.59;100456.53;2117206;27;47842;-62
2022/07/25 02:23:18;;;;;;;;;11.25;11.25;;;;;29.31;38.53;100453.81;2118494;27;46404;-63
2022/07/25 02:24:18;;;;;;;;;13.00;12.50;;;;;29.30;38.60;100460.28;2120620;27;47866;-62
2022/07/25 02:25:19;;;;;;;;;12.00;12.00;;;;;29.29;38.89;100455.84;2116179;27;46095;-64
2022/07/25 02:26:20;;;;;;;;;14.00;14.00;;;;;29.28;39.11;100459.59;2114054;27;47350;-60
2022/07/25 02:27:20;;;;;;;;;12.50;12.50;;;;;29.27;38.92;100457.88;2120452;27;46557;-64
2022/07/25 02:28:20;;;;;;;;;12.00;11.25;;;;;29.27;38.47;100457.03;2120166;27;48122;-62
2022/07/25 02:29:21;;;;;;;;;12.50;12.50;;;;;29.24;38.59;100451.91;2120289;27;47519;-60
2022/07/25 02:30:21;;;;;;;;;11.50;10.00;;;;;29.24;38.54;100451.91;2109760;27;47444;-62
2022/07/25 02:31:22;;;;;;;;;9.75;9.00;;;;;29.23;38.76;100451.03;2105473;27;45923;-63
2022/07/25 02:32:22;;;;;;;;;12.75;12.00;;;;;29.21;38.80;100453.03;2102607;28;47704;-60
2022/07/25 02:33:23;;;;;;;;;8.50;8.50;;;;;29.21;39.03;100450.31;2118338;27;46092;-63
2022/07/25 02:34:23;;;;;;;;;10.75;10.75;;;;;29.19;38.85;100452.34;2116538;27;47725;-63
2022/07/25 02:35:23;;;;;;;;;11.75;11.75;;;;;29.20;38.99;100458.69;2113917;27;47220;-61
2022/07/25 02:36:24;;;;;;;;;11.50;11.50;;;;;29.18;38.75;100452.50;2118690;27;47552;-62
2022/07/25 02:37:24;;;;;;;;;12.75;11.75;;;;;29.16;38.89;100454.56;2113405;27;47573;-60
2022/07/25 02:38:25;;;;;;;;;10.75;10.00;;;;;29.14;39.23;100454.72;2116793;27;47044;-63
2022/07/25 02:39:25;;;;;;;;;12.50;12.50;;;;;29.12;39.23;100456.75;2112299;27;45425;-63
2022/07/25 02:40:25;;;;;;;;;11.50;11.50;;;;;29.11;39.21;100456.91;2111909;27;47450;-60
2022/07/25 02:41:26;;;;;;;;;12.50;11.50;;;;;29.09;38.91;100459.78;2119156;27;46493;-62
2022/07/25 02:42:26;;;;;;;;;12.75;10.75;;;;;29.08;39.16;100458.06;2116776;27;48008;-63
2022/07/25 02:43:27;;;;;;;;;10.25;10.25;;;;;29.07;39.43;100452.78;2113899;27;47836;-63
2022/07/25 02:44:27;;;;;;;;;12.25;11.50;;;;;29.06;39.10;100459.25;2120363;27;47688;-64
2022/07/25 02:45:27;;;;;;;;;12.25;10.50;;;;;29.05;38.94;100454.81;2110387;27;45883;-62
2022/07/25 02:46:28;;;;;;;;;10.50;10.25;;;;;29.02;39.03;100454.13;2110283;27;47502;-63
2022/07/25 02:47:28;;;;;;;;;12.75;12.00;;;;;29.02;39.08;100450.53;2098931;28;47992;-62
2022/07/25 02:48:29;;;;;;;;;10.00;9.50;;;;;29.00;39.06;100452.56;2102167;28;47466;-61
2022/07/25 02:49:29;;;;;;;;;10.00;8.50;;;;;28.99;39.08;100453.59;2115023;27;47580;-64
2022/07/25 02:50:30;;;;;;;;;11.00;11.00;;;;;28.97;39.19;100459.22;2115293;27;47706;-60
2022/07/25 02:51:30;;;;;;;;;9.50;9.50;;;;;28.95;39.21;100452.16;2108384;27;47193;-64
2022/07/25 02:52:30;;;;;;;;;12.00;9.75;;;;;28.93;39.22;100451.47;2108374;27;47621;-62
2022/07/25 02:53:31;;;;;;;;;8.25;8.25;;;;;28.90;39.13;100455.38;2121185;27;47535;-64
2022/07/25 02:54:31;;;;;;;;;9.25;9.25;;;;;28.88;39.21;100451.94;2108783;27;48368;-65
2022/07/25 02:55:32;;;;;;;;;9.25;9.25;;;;;28.84;39.14;100458.72;2105108;27;47548;-64
2022/07/25 02:56:32;;;;;;;;;11.25;10.25;;;;;28.81;39.35;100455.44;2120868;27;47503;-67
2022/07/25 02:57:32;;;;;;;;;8.50;8.50;;;;;28.79;39.48;100452.84;2118943;27;47074;-60
2022/07/25 02:58:33;;;;;;;;;8.00;8.00;;;;;28.76;39.40;100455.91;2120611;27;47318;-64
2022/07/25 02:59:33;;;;;;;;;8.00;8.00;;;;;28.75;39.04;100464.25;2114020;27;47906;-60
2022/07/25 03:00:34;;;;;;;;;11.25;9.00;;;;;28.73;39.65;100458.97;2115809;27;47290;-64
2022/07/25 03:01:34;;;;;;;;;9.75;9.75;;;;;28.70;39.46;100460.09;2121664;27;47286;-63
2022/07/25 03:02:35;;;;;;;;;10.00;10.00;;;;;28.68;39.51;100466.75;2121555;27;47940;-64
2022/07/25 03:03:35;;;;;;;;;6.00;6.00;;;;;28.63;39.40;100458.16;2117609;27;47535;-65
2022/07/25 03:04:36;;;;;;;;;9.00;9.00;;;;;28.60;39.46;100463.94;2112986;27;47648;-64
2022/07/25 03:05:36;;;;;;;;;9.75;9.75;;;;;28.57;39.43;100456.03;2118978;27;47546;-64
2022/07/25 03:06:36;;;;;;;;;8.25;8.00;;;;;28.54;39.72;100462.69;2119979;27;47817;-61
2022/07/25 03:07:37;;;;;;;;;10.25;9.75;;;;;28.51;39.57;100456.69;2121036;27;47449;-66
2022/07/25 03:08:38;;;;;;;;;9.00;9.00;;;;;28.48;39.38;100463.31;2121261;27;47941;-64
2022/07/25 03:09:38;;;;;;;;;6.75;6.75;;;;;28.46;39.97;100459.00;2121409;27;47745;-66
2022/07/25 03:10:38;;;;;;;;;5.75;5.75;;;;;28.43;39.63;100455.56;2121269;27;47402;-61
2022/07/25 03:11:39;;;;;;;;;7.00;7.00;;;;;28.41;39.26;100463.06;2121207;27;47235;-65
2022/07/25 03:12:40;;;;;;;;;6.00;6.00;;;;;28.40;39.65;100460.50;2121474;27;47045;-61
2022/07/25 03:13:41;;;;;;;;;7.60;6.00;;;;;28.37;39.36;100464.41;2121206;27;47409;-64
2022/07/25 03:14:41;;;;;;;;;7.50;7.50;;;;;28.35;39.58;100463.69;2103283;28;48204;-63
2022/07/25 03:15:42;;;;;;;;;6.00;6.00;;;;;28.34;39.15;100470.16;2107635;27;47491;-65
2022/07/25 03:16:42;;;;;;;;;9.00;9.00;;;;;28.33;39.45;100470.28;2118247;27;47513;-66
2022/07/25 03:17:43;;;;;;;;;7.00;7.00;;;;;28.31;39.53;100470.44;2103728;28;47647;-61
2022/07/25 03:18:44;;;;;;;;;8.00;8.00;;;;;28.29;39.67;100467.03;2103598;27;47246;-65
2022/07/25 03:19:44;;;;;;;;;7.80;7.00;;;;;28.29;39.37;100468.91;2112807;27;47582;-66
2022/07/25 03:20:44;;;;;;;;;8.75;8.75;;;;;28.26;39.41;100461.84;2112942;27;47895;-62
2022/07/25 03:21:45;;;;;;;;;9.00;8.00;;;;;28.26;39.52;100461.00;2112833;27;47641;-65
2022/07/25 03:22:45;;;;;;;;;6.50;6.50;;;;;28.24;39.32;100463.88;2115417;27;47760;-62
2022/07/25 03:23:46;;;;;;;;;8.00;8.00;;;;;28.23;39.64;100466.75;2120993;27;47153;-65
2022/07/25 03:24:46;;;;;;;;;5.75;5.75;;;;;28.22;39.14;100470.50;2118141;27;47376;-65
2022/07/25 03:25:47;;;;;;;;;6.50;6.50;;;;;28.21;39.34;100466.91;2112868;27;47604;-61
2022/07/25 03:26:47;;;;;;;;;5.25;5.25;;;;;28.21;39.68;100471.53;2112708;27;47484;-64
2022/07/25 03:27:48;;;;;;;;;9.50;9.50;;;;;28.19;39.49;100471.63;2113001;27;47794;-64
2022/07/25 03:28:48;;;;;;;;;8.75;8.75;;;;;28.19;39.22;100470.78;2112624;27;48037;-64
2022/07/25 03:29:49;;;;;;;;;5.75;5.75;;;;;28.17;39.44;100473.66;2112721;27;47594;-64
2022/07/25 03:30:50;;;;;;;;;9.00;8.75;;;;;28.15;39.50;100475.69;2112628;27;47086;-65
2022/07/25 03:31:50;;;;;;;;;8.25;8.25;;;;;28.13;39.69;100478.59;2120722;27;47725;-65
2022/07/25 03:32:50;;;;;;;;;7.75;6.75;;;;;28.13;39.57;100477.72;2102773;28;47748;-62
2022/07/25 03:33:51;;;;;;;;;8.75;8.75;;;;;28.12;39.56;100479.59;2102799;28;47374;-66
2022/07/25 03:34:51;;;;;;;;;6.00;6.00;;;;;28.12;39.22;100481.47;2121732;27;45868;-61
2022/07/25 03:35:52;;;;;;;;;8.50;7.50;;;;;28.09;39.58;100482.63;2121341;27;47386;-65
2022/07/25 03:36:52;;;;;;;;;9.50;7.25;;;;;28.09;39.31;100481.78;2121388;27;48093;-65
2022/07/25 03:37:53;;;;;;;;;7.50;7.25;;;;;28.07;39.85;100483.78;2112094;27;47633;-64
2022/07/25 03:38:55;;;;;;;;;6.75;6.75;;;;;28.05;39.75;100488.53;2112169;27;47130;-65
2022/07/25 03:39:55;;;;;;;;;7.60;7.00;;;;;28.03;39.32;100485.94;2112117;27;47377;-61
2022/07/25 03:40:56;;;;;;;;;9.00;9.00;;;;;28.03;39.23;100493.28;2112029;27;47392;-63
2022/07/25 03:41:56;;;;;;;;;6.75;6.75;;;;;28.02;39.60;100488.84;2121446;27;47499;-64
2022/07/25 03:42:57;;;;;;;;;7.00;7.00;;;;;28.01;39.74;100485.25;2121208;27;47541;-62
2022/07/25 03:43:57;;;;;;;;;6.75;6.75;;;;;28.00;39.47;100482.69;2112360;27;47320;-63
2022/07/25 03:44:57;;;;;;;;;7.50;7.50;;;;;28.00;39.81;100491.72;2113750;27;47565;-60
2022/07/25 03:45:58;;;;;;;;;6.25;5.75;;;;;27.98;39.63;100493.75;2121729;27;47419;-62
2022/07/25 03:46:58;;;;;;;;;7.25;7.25;;;;;27.96;39.41;100495.78;2122966;27;47297;-63
2022/07/25 03:47:58;;;;;;;;;5.25;5.25;;;;;27.95;39.58;100496.78;2122766;27;48438;-61
2022/07/25 03:48:59;;;;;;;;;4.75;4.75;;;;;27.93;38.97;100496.03;2122638;27;47646;-63
2022/07/25 03:49:59;;;;;;;;;5.75;5.00;;;;;27.89;39.52;100497.38;2122782;27;48055;-61
2022/07/25 03:51:00;;;;;;;;;6.00;6.00;;;;;27.87;39.05;100499.38;2120885;27;47820;-60
2022/07/25 03:52:01;;;;;;;;;6.00;6.00;;;;;27.85;39.26;100501.41;2114375;27;47394;-63
2022/07/25 03:53:01;;;;;;;;;5.40;5.40;;;;;27.82;38.74;100502.56;2122549;27;47631;-63
2022/07/25 03:54:02;;;;;;;;;3.75;3.75;;;;;27.78;39.02;100503.00;2113259;27;46940;-60
2022/07/25 03:55:04;;;;;;;;;6.00;6.00;;;;;27.77;39.04;100518.50;2096956;28;47560;-57
2022/07/25 03:56:05;;;;;;;;;6.00;5.80;;;;;27.74;38.81;100518.81;2111903;27;47753;-62
2022/07/25 03:57:05;;;;;;;;;7.25;6.25;;;;;27.73;39.04;100517.09;2122122;27;48254;-62
2022/07/25 03:58:06;;;;;;;;;5.00;5.00;;;;;27.71;39.12;100518.25;2114026;27;47898;-63
2022/07/25 03:59:08;;;;;;;;;3.75;3.75;;;;;27.69;38.82;100521.09;2117992;27;47310;-58
2022/07/25 04:00:11;;;;;;;;;3.80;3.80;;;;;27.67;39.16;100522.25;2122782;27;47250;-62
2022/07/25 04:01:11;;;;;;;;;5.80;5.80;;;;;27.64;39.31;100517.97;2122697;27;48047;-63
2022/07/25 04:02:11;;;;;;;;;4.00;4.00;;;;;27.63;38.68;100518.09;2113501;27;47316;-62
2022/07/25 04:03:12;;;;;;;;;4.00;4.00;;;;;27.61;39.61;100529.16;2113804;27;48220;-63
2022/07/25 04:04:12;;;;;;;;;6.25;6.00;;;;;27.61;39.12;100534.59;2105125;28;47320;-64
2022/07/25 04:05:13;;;;;;;;;3.75;3.00;;;;;27.59;38.64;100531.16;2106801;27;47178;-64
2022/07/25 04:06:13;;;;;;;;;4.00;4.00;;;;;27.56;38.77;100528.72;2112958;27;47328;-61
2022/07/25 04:07:14;;;;;;;;;4.00;4.00;;;;;27.53;38.96;100524.41;2112697;27;47831;-63
2022/07/25 04:08:14;;;;;;;;;3.75;3.75;;;;;27.51;38.89;100528.31;2116190;27;47991;-64
2022/07/25 04:09:15;;;;;;;;;4.50;4.50;;;;;27.49;39.10;100528.47;2106126;27;47377;-62
2022/07/25 04:10:15;;;;;;;;;3.50;3.50;;;;;27.47;39.04;100527.75;2099835;27;47425;-64
2022/07/25 04:11:15;;;;;;;;;3.25;3.00;;;;;27.45;38.68;100535.22;2105214;28;46994;-62
2022/07/25 04:12:16;;;;;;;;;3.00;3.00;;;;;27.43;38.23;100531.75;2116973;27;47681;-63
2022/07/25 04:13:16;;;;;;;;;4.75;3.00;;;;;27.40;38.18;100526.59;2117810;27;47039;-63
2022/07/25 04:14:16;;;;;;;;;3.25;3.25;;;;;27.37;38.42;100524.19;2113965;27;47584;-59
2022/07/25 04:15:17;;;;;;;;;2.75;2.75;;;;;27.36;38.82;100535.22;2121199;27;47586;-62
2022/07/25 04:16:17;;;;;;;;;3.75;3.75;;;;;27.33;38.79;100532.81;2096782;28;47408;-63
2022/07/25 04:17:18;;;;;;;;;3.50;3.50;;;;;27.30;38.38;100527.63;2096852;28;45569;-61
2022/07/25 04:18:18;;;;;;;;;6.00;4.75;;;;;27.28;38.34;100523.19;2122435;27;47959;-64
2022/07/25 04:19:18;;;;;;;;;4.00;2.75;;;;;27.26;39.00;100517.00;2122522;27;47331;-62
2022/07/25 04:20:19;;;;;;;;;4.25;4.25;;;;;27.25;38.79;100517.16;2122377;27;47277;-63
2022/07/25 04:21:19;;;;;;;;;2.00;2.00;;;;;27.26;38.78;100516.16;2123499;27;47634;-63
2022/07/25 04:22:20;;;;;;;;;2.75;2.75;;;;;27.25;38.69;100511.72;2114069;27;47248;-62
2022/07/25 04:23:20;;;;;;;;;3.50;3.50;;;;;27.24;38.02;100520.91;2112125;27;47387;-63
2022/07/25 04:24:20;;;;;;;;;3.50;3.50;;;;;27.23;38.45;100519.19;2113293;27;47554;-63
2022/07/25 04:25:21;;;;;;;;;1.50;1.50;;;;;27.22;38.27;100528.38;2122645;27;47681;-64
2022/07/25 04:26:21;;;;;;;;;4.00;4.00;;;;;27.21;38.67;100532.94;2122331;27;47138;-59
2022/07/25 04:27:22;;;;;;;;;3.25;3.25;;;;;27.21;38.77;100538.41;2122440;27;47451;-62
2022/07/25 04:28:23;;;;;;;;;3.25;3.25;;;;;27.20;38.37;100531.22;2122180;27;47368;-63
2022/07/25 04:29:23;;;;;;;;;3.00;3.00;;;;;27.19;38.68;100537.69;2122177;27;47050;-61
2022/07/25 04:30:24;;;;;;;;;3.00;3.00;;;;;27.19;38.79;100536.84;2120496;27;47297;-64
2022/07/25 04:31:24;;;;;;;;;3.00;3.00;;;;;27.19;38.33;100534.97;2118396;27;47502;-63
2022/07/25 04:32:25;;;;;;;;;4.50;3.00;;;;;27.19;39.02;100537.69;2122648;27;47802;-62
2022/07/25 04:33:26;;;;;;;;;3.50;3.50;;;;;27.19;38.79;100537.69;2130433;27;47567;-64
2022/07/25 04:34:26;;;;;;;;;2.00;2.00;;;;;27.20;39.07;100542.13;2125706;27;46691;-63
2022/07/25 04:35:27;;;;;;;;;3.25;3.25;;;;;27.19;38.78;100537.69;2113921;27;47267;-63
2022/07/25 04:36:28;;;;;;;;;3.25;3.25;;;;;27.19;38.26;100545.00;2113710;27;47556;-64
2022/07/25 04:37:28;;;;;;;;;2.00;2.00;;;;;27.18;38.81;100538.66;2113568;27;47675;-63